Latest Weather Observations for Yarram Airport

IDV60801

Issued at 4:32 am EST Monday 24 July 2017 (issued every 30 minutes, with the page automatically refreshed every 10 minutes)

About weather observations | Map of weather stations | Latest weather observations for VIC | Other Formats
Station Details ID: 085151 Name: YARRAM AIRPORT Lat: -38.56 Lon: 146.75 Height: 17.9 m
Data from the previous 72 hours. | See also: Recent months at Yarram Airport
Date/Time
EST
Temp
°C
App
Temp
°C
Dew
Point
°C
Rel
Hum
%
Delta-T
°C
Wind Press
QNH
hPa
Press
MSL
hPa
Rain since
9am
mm
Dir  Spd
km/h
Gust
km/h
Spd
kts
Gust
kts
24/04:30am 7.9 4.3 6.8 93 0.5 NW 15 17 8 9 1015.6 1015.7 1.0
24/04:00am 6.6 3.0 5.1 90 0.7 NW 13 15 7 8 1015.3 1015.4 1.0
24/03:30am 7.5 4.2 6.3 92 0.5 WNW 13 17 7 9 1015.3 1015.4 1.0
24/03:00am 8.0 4.4 6.6 91 0.6 WNW 15 17 8 9 1015.3 1015.4 1.0
24/02:30am 8.0 4.7 6.6 91 0.6 WNW 13 17 7 9 1015.2 1015.3 1.0
24/02:00am 8.9 5.5 7.8 93 0.5 W 15 19 8 10 1015.0 1015.1 1.0
24/01:30am 8.9 5.2 7.8 93 0.5 WNW 17 20 9 11 1014.9 1015.0 1.0
24/01:00am 8.8 5.4 7.6 92 0.6 WNW 15 19 8 10 1014.7 1014.8 1.0
24/12:30am 9.3 5.6 7.9 91 0.7 W 17 22 9 12 1014.6 1014.7 1.0
24/12:00am 9.4 6.5 8.3 93 0.5 WNW 13 17 7 9 1014.5 1014.6 1.0
 
Date/Time
EST
Temp
°C
App
Temp
°C
Dew
Point
°C
Rel
Hum
%
Delta-T
°C
Wind Press
QNH
hPa
Press
MSL
hPa
Rain since
9am
mm
Dir  Spd
km/h
Gust
km/h
Spd
kts
Gust
kts
23/11:30pm 9.5 6.0 8.6 94 0.4 WNW 17 26 9 14 1014.3 1014.4 1.0
23/11:00pm 9.5 5.3 8.3 92 0.6 WNW 20 28 11 15 1014.2 1014.3 0.8
23/10:30pm 9.8 4.9 8.4 91 0.7 W 24 32 13 17 1014.1 1014.2 0.8
23/10:00pm 9.9 6.6 8.0 88 0.9 W 15 19 8 10 1013.8 1013.9 0.0
23/09:30pm 10.1 6.7 7.5 84 1.2 W 15 20 8 11 1013.6 1013.7 0.0
23/09:00pm 9.7 6.2 7.0 83 1.3 WNW 15 20 8 11 1013.0 1013.1 0.0
23/08:30pm 10.6 5.8 7.3 80 1.6 WNW 22 30 12 16 1012.3 1012.4 0.0
23/08:00pm 10.5 5.0 7.6 82 1.4 WNW 26 33 14 18 1011.8 1011.9 0.0
23/07:30pm 10.3 5.1 7.4 82 1.4 WNW 24 30 13 16 1011.8 1011.9 0.0
23/07:00pm 10.6 5.1 7.7 82 1.4 WNW 26 35 14 19 1011.4 1011.5 0.0
23/06:30pm 10.2 6.0 7.4 83 1.3 WNW 19 26 10 14 1011.1 1011.2 0.0
23/06:00pm 10.4 6.0 7.6 83 1.3 W 20 26 11 14 1010.7 1010.8 0.0
23/05:30pm 10.7 5.4 6.8 77 1.8 WNW 24 33 13 18 1010.2 1010.3 0.0
23/05:00pm 11.2 5.1 6.5 73 2.2 WNW 28 37 15 20 1009.8 1009.9 0.0
23/04:30pm 11.7 4.6 6.4 70 2.5 WNW 33 48 18 26 1009.2 1009.3 0.0
23/04:00pm 12.4 4.7 6.9 69 2.6 WNW 37 52 20 28 1009.1 1009.2 0.0
23/03:30pm 12.7 4.3 7.4 70 2.6 WNW 41 59 22 32 1008.7 1008.8 0.0
23/03:24pm 12.8 4.8 7.5 70 2.6 WNW 39 59 21 32 1008.5 1008.5 0.0
23/03:00pm 13.4 5.0 7.4 67 2.9 WNW 41 56 22 30 1008.1 1008.1 0.0
23/02:40pm 13.0 4.6 7.5 69 2.7 WNW 41 59 22 32 1007.9 1007.9 0.0
23/02:30pm 12.8 4.4 7.5 70 2.6 WNW 41 52 22 28 1007.9 1007.9 0.0
23/02:00pm 13.5 4.1 7.3 66 3.0 WNW 46 57 25 31 1007.9 1007.9 0.0
23/01:30pm 14.3 5.3 7.1 62 3.5 WNW 44 63 24 34 1007.8 1007.8 0.0
23/01:00pm 14.5 4.2 6.6 59 3.8 WNW 50 70 27 38 1007.9 1007.9 0.0
23/12:44pm 15.0 4.7 6.3 56 4.2 W 50 72 27 39 1007.9 1007.9 0.0
23/12:30pm 15.0 4.6 6.0 55 4.3 W 50 65 27 35 1008.0 1008.0 0.0
23/12:00pm 15.2 5.2 6.2 55 4.4 WNW 48 69 26 37 1008.3 1008.3 0.0
23/11:30am 14.9 5.3 6.2 56 4.2 WNW 46 65 25 35 1008.7 1008.8 0.0
23/11:00am 14.8 4.9 6.4 57 4.1 WNW 48 74 26 40 1009.0 1009.1 0.0
23/10:48am 14.6 5.6 6.4 58 4.0 WNW 43 61 23 33 1009.2 1009.3 0.0
23/10:30am 14.4 5.2 6.3 58 3.9 WNW 44 59 24 32 1009.2 1009.3 0.0
23/10:00am 13.8 4.4 5.2 56 4.0 WNW 44 63 24 34 1009.1 1009.2 0.0
23/09:30am 14.0 5.4 4.9 54 4.2 WNW 39 61 21 33 1009.0 1009.1 0.0
23/09:23am 13.7 4.7 4.8 55 4.1 WNW 41 61 22 33 1008.9 1009.0 0.0
23/09:00am 13.0 5.8 4.9 58 3.7 WNW 32 44 17 24 1009.1 1009.2 0.0
23/08:30am 12.1 5.1 3.9 57 3.7 WNW 30 44 16 24 1009.0 1009.1 0.0
23/08:00am 12.2 5.1 3.7 56 3.8 WNW 30 43 16 23 1009.0 1009.1 0.0
23/07:30am 12.2 5.9 1.8 49 4.5 WNW 24 32 13 17 1008.8 1008.9 0.0
23/07:00am 12.4 5.7 1.4 47 4.7 WNW 26 43 14 23 1008.8 1008.9 0.0
23/06:30am 13.1 6.0 1.1 44 5.1 NW 28 43 15 23 1008.3 1008.3 0.0
23/06:29am 13.2 6.1 1.2 44 5.1 NW 28 43 15 23 1008.2 1008.2 0.0
23/06:00am 11.9 6.2 0.7 46 4.7 NW 20 39 11 21 1008.4 1008.4 0.0
23/05:30am 11.4 6.6 0.2 46 4.6 NNW 15 24 8 13 1008.3 1008.3 0.0
23/05:00am 10.9 5.8 0.6 49 4.2 N 17 22 9 12 1008.4 1008.4 0.0
23/04:30am 11.1 5.5 0.2 47 4.5 N 19 28 10 15 1008.6 1008.7 0.0
23/04:00am 12.6 6.4 0.0 42 5.2 NNW 22 37 12 20 1009.0 1009.1 0.0
23/03:37am 12.7 4.7 0.1 42 5.2 NNW 32 50 17 27 1009.1 1009.2 0.0
23/03:30am 12.4 3.8 0.2 43 5.0 NNW 35 48 19 26 1008.9 1009.0 0.0
23/03:14am 12.7 4.5 0.5 43 5.1 NNW 33 52 18 28 1008.9 1009.0 0.0
23/03:00am 12.6 4.0 0.4 43 5.1 NNW 35 46 19 25 1009.2 1009.3 0.0
23/02:31am 12.9 4.3 0.3 42 5.2 NNW 35 54 19 29 1009.8 1009.9 0.0
23/02:30am 12.9 4.0 0.6 43 5.2 NNW 37 54 20 29 1009.8 1009.9 0.0
23/02:04am 12.7 5.5 0.8 44 5.0 NNW 28 54 15 29 1010.1 1010.2 0.0
23/02:00am 12.5 5.3 0.9 45 4.9 NNW 28 43 15 23 1010.2 1010.3 0.0
23/01:30am 12.7 5.5 0.8 44 5.0 NNW 28 39 15 21 1010.5 1010.6 0.0
23/01:00am 12.6 5.4 1.0 45 4.9 NNW 28 44 15 24 1010.7 1010.8 0.0
23/12:30am 12.6 4.5 1.3 46 4.8 NW 33 44 18 24 1010.9 1011.0 0.0
23/12:07am 12.7 4.6 1.1 45 4.9 NW 33 52 18 28 1010.9 1011.0 0.0
23/12:00am 12.5 4.0 1.2 46 4.8 NW 35 50 19 27 1011.0 1011.1 0.0
 
Date/Time
EST
Temp
°C
App
Temp
°C
Dew
Point
°C
Rel
Hum
%
Delta-T
°C
Wind Press
QNH
hPa
Press
MSL
hPa
Rain since
9am
mm
Dir  Spd
km/h
Gust
km/h
Spd
kts
Gust
kts
22/11:30pm 13.1 4.6 0.8 43 5.2 NW 35 54 19 29 1011.3 1011.4 0.0
22/11:16pm 13.0 5.5 1.0 44 5.1 NW 30 52 16 28 1011.4 1011.5 0.0
22/11:00pm 12.4 5.7 1.4 47 4.7 NW 26 41 14 22 1011.5 1011.6 0.0
22/10:30pm 12.5 7.1 1.5 47 4.7 WNW 19 30 10 16 1011.8 1011.9 0.0
22/10:00pm 11.8 7.3 2.3 52 4.1 WNW 15 24 8 13 1011.8 1011.9 0.0
22/09:30pm 7.0 4.7 2.7 74 1.8 WSW 4 9 2 5 1012.0 1012.1 0.0
22/09:00pm 6.3 3.3 1.8 73 1.8 N 7 9 4 5 1011.8 1011.9 0.0
22/08:30pm 8.2 6.2 2.2 66 2.5 N 2 6 1 3 1011.8 1011.9 0.0
22/08:00pm 8.6 7.0 2.2 64 2.7 CALM 0 0 0 0 1012.1 1012.2 0.0
22/07:30pm 9.0 6.7 3.0 66 2.6 SE 4 13 2 7 1012.2 1012.3 0.0
22/07:00pm 11.3 8.6 2.9 56 3.7 NE 6 11 3 6 1012.4 1012.5 0.0
22/06:30pm 11.3 7.3 3.1 57 3.6 N 13 15 7 8 1012.7 1012.8 0.0
22/06:00pm 12.2 8.2 2.9 53 4.1 N 13 17 7 9 1012.7 1012.8 0.0
22/05:30pm 13.1 9.8 2.6 49 4.6 NNE 9 15 5 8 1012.6 1012.7 0.0
22/05:00pm 13.4 9.7 2.6 48 4.8 NNW 11 19 6 10 1012.5 1012.6 0.0
22/04:30pm 14.2 9.5 3.4 48 4.9 NNW 17 24 9 13 1012.5 1012.6 0.0
22/04:00pm 15.0 9.7 2.9 44 5.4 NNW 20 30 11 16 1012.2 1012.3 0.0
22/03:30pm 14.7 9.3 2.6 44 5.4 NNW 20 30 11 16 1012.7 1012.8 0.0
22/03:00pm 14.9 10.6 3.4 46 5.2 NNW 15 22 8 12 1013.0 1013.1 0.0
22/02:30pm 14.0 9.6 2.6 46 5.0 NNW 15 28 8 15 1013.1 1013.2 0.0
22/02:00pm 13.3 8.9 2.8 49 4.6 NW 15 22 8 12 1014.0 1014.1 0.0
22/01:30pm 13.6 10.3 2.5 47 4.9 W 9 13 5 7 1014.7 1014.8 0.0
22/01:00pm 14.2 8.7 2.1 44 5.3 WNW 20 30 11 16 1015.3 1015.4 0.0
22/12:30pm 14.8 12.1 3.9 48 5.0 NW 7 13 4 7 1016.1 1016.2 0.0
22/12:00pm 12.6 9.8 3.0 52 4.2 SW 7 13 4 7 1017.0 1017.1 0.0
22/11:30am 12.0 11.0 5.4 64 3.1 CALM 0 0 0 0 1017.5 1017.6 0.0
22/11:00am 10.3 9.5 6.6 78 1.7 CALM 0 0 0 0 1017.8 1017.9 0.0
22/10:30am 9.4 8.7 7.0 85 1.1 CALM 0 0 0 0 1018.0 1018.1 0.0
22/10:00am 7.7 7.0 7.1 96 0.3 CALM 0 0 0 0 1018.4 1018.5 0.0
22/09:30am 5.2 2.3 4.9 98 0.1 NE 9 13 5 7 1018.7 1018.8 0.0
22/09:00am 2.6 -1.1 2.2 97 0.2 NNE 11 13 6 7 1019.1 1019.2 0.2
22/08:30am 0.4 -4.0 0.1 98 0.1 NNE 13 15 7 8 1019.3 1019.4 0.0
22/08:00am -2.5 -4.9 -2.9 97 0.0 CALM 0 0 0 0 1019.4 1019.5 0.0
22/07:30am -4.1 -6.7 -4.6 96 0.0 CALM 0 0 0 0 1019.6 1019.7 0.0
22/07:00am -4.1 -7.8 -4.6 96 0.0 N 6 9 3 5 1019.3 1019.4 0.0
22/06:30am -4.5 -7.5 -5.0 96 0.0 NW 2 7 1 4 1019.2 1019.3 0.0
22/06:00am -3.4 -5.9 -3.9 96 0.0 CALM 0 0 0 0 1019.1 1019.2 0.0
22/05:30am -2.9 -6.1 -3.4 96 0.0 NNE 4 11 2 6 1018.9 1019.0 0.0
22/05:00am -2.2 -4.9 -2.7 96 0.1 NE 2 9 1 5 1019.0 1019.1 0.0
22/04:30am -2.6 -7.1 -3.1 96 0.1 NNE 11 13 6 7 1019.1 1019.2 0.0
22/04:00am -2.3 -6.0 -2.8 96 0.1 N 7 11 4 6 1019.4 1019.5 0.0
22/03:30am -2.3 -6.4 -2.8 96 0.1 NNE 9 11 5 6 1019.7 1019.8 0.0
22/03:00am -2.3 -4.7 -3.0 95 0.1 CALM 0 0 0 0 1020.0 1020.1 0.0
22/02:30am -2.0 -4.3 -2.7 95 0.1 CALM 0 0 0 0 1020.1 1020.2 0.0
22/02:00am -0.9 -3.1 -1.6 95 0.2 CALM 0 0 0 0 1020.5 1020.6 0.0
22/01:30am -1.2 -4.6 -2.2 93 0.3 W 6 7 3 4 1020.7 1020.8 0.0
22/01:00am 0.4 -3.4 -0.5 94 0.3 W 9 13 5 7 1020.9 1021.0 0.0
22/12:30am -0.1 -2.6 -1.2 92 0.4 W 2 9 1 5 1021.3 1021.4 0.0
22/12:00am 0.7 -3.1 -0.6 91 0.5 WNW 9 11 5 6 1021.8 1021.9 0.0
 
Date/Time
EST
Temp
°C
App
Temp
°C
Dew
Point
°C
Rel
Hum
%
Delta-T
°C
Wind Press
QNH
hPa
Press
MSL
hPa
Rain since
9am
mm
Dir  Spd
km/h
Gust
km/h
Spd
kts
Gust
kts
21/11:30pm 4.3 0.1 3.9 97 0.2 NNE 15 19 8 10 1021.9 1022.0 0.0
21/11:00pm 1.4 -2.5 1.0 97 0.1 NNE 11 13 6 7 1022.1 1022.2 0.0
21/10:30pm 0.3 -3.1 -0.3 96 0.2 NNE 7 11 4 6 1022.2 1022.3 0.0
21/10:00pm -0.5 -4.3 -1.1 96 0.2 NNE 9 11 5 6 1022.2 1022.3 0.0
21/09:30pm 0.4 -1.6 -0.3 95 0.2 CALM 0 0 0 0 1022.1 1022.2 0.0
21/09:00pm 2.1 -0.8 1.4 95 0.3 NNE 6 7 3 4 1022.1 1022.2 0.0
21/08:30pm 1.9 -1.2 1.2 95 0.3 NNE 7 9 4 5 1022.0 1022.1 0.0
21/08:00pm 3.2 0.2 2.3 94 0.4 N 7 7 4 4 1022.3 1022.4 0.0
21/07:30pm 3.5 0.2 2.6 94 0.4 N 9 11 5 6 1022.3 1022.4 0.0
21/07:00pm 3.1 -0.3 1.8 91 0.5 NNW 9 11 5 6 1022.4 1022.5 0.0
21/06:30pm 4.1 1.1 2.1 87 0.8 N 7 9 4 5 1022.2 1022.3 0.0
21/06:00pm 5.5 2.6 2.5 81 1.2 NE 7 7 4 4 1022.0 1022.1 0.0
21/05:30pm 8.7 5.4 4.5 75 1.9 ENE 11 13 6 7 1022.0 1022.1 0.0
21/05:00pm 10.0 7.2 5.2 72 2.2 E 9 11 5 6 1022.0 1022.1 0.0
21/04:30pm 11.3 8.6 5.8 69 2.6 E 9 13 5 7 1021.7 1021.8 0.0
21/04:00pm 12.1 8.3 5.7 65 3.0 ESE 15 19 8 10 1021.9 1022.0 0.0
21/03:30pm 13.1 12.1 5.5 60 3.6 CALM 0 0 0 0 1021.9 1022.0 0.0
21/03:00pm 12.3 11.2 5.0 61 3.3 CALM 0 0 0 0 1021.8 1021.9 0.0
21/02:30pm 12.8 10.4 4.3 56 3.9 SSW 6 9 3 5 1021.8 1021.9 0.0
21/02:00pm 12.1 9.6 4.8 61 3.3 SSW 7 11 4 6 1022.0 1022.1 0.0
21/01:30pm 13.6 11.4 5.5 58 3.8 WSW 6 11 3 6 1022.4 1022.5 0.0
21/01:00pm 13.0 10.4 4.2 55 4.0 W 7 13 4 7 1022.8 1022.9 0.0
21/12:30pm 12.9 10.6 4.8 58 3.7 W 6 9 3 5 1023.1 1023.2 0.0
21/12:00pm 13.0 10.9 5.7 61 3.4 W 6 9 3 5 1023.6 1023.7 0.0
21/11:30am 12.8 10.6 6.2 64 3.1 NW 7 11 4 6 1024.1 1024.2 0.0
21/11:00am 11.4 9.1 7.3 76 2.0 W 9 13 5 7 1024.3 1024.4 0.0
21/10:30am 10.6 8.4 8.0 84 1.3 WSW 9 13 5 7 1024.3 1024.4 0.0
21/10:00am 8.7 6.4 7.6 93 0.5 W 9 11 5 6 1024.4 1024.5 0.0
21/09:30am 7.3 6.6 6.9 97 0.2 CALM 0 0 0 0 1024.2 1024.3 0.0
21/09:00am 5.5 4.4 5.2 98 0.1 CALM 0 0 0 0 1024.0 1024.1 3.4
21/08:30am 3.4 1.9 3.1 98 0.1 CALM 0 0 0 0 1023.4 1023.5 3.4
21/08:00am 1.5 -0.3 1.2 98 0.1 CALM 0 0 0 0 1023.2 1023.3 3.4
21/07:30am -0.7 -2.9 -1.3 96 0.2 CALM 0 0 0 0 1023.0 1023.1 3.4
21/07:00am 0.6 -1.4 0.0 96 0.2 CALM 0 0 0 0 1022.7 1022.8 3.4
21/06:30am 0.2 -1.8 -0.4 96 0.2 CALM 0 0 0 0 1022.5 1022.6 3.4
21/06:00am 0.8 -1.2 0.1 95 0.3 CALM 0 0 0 0 1022.1 1022.2 3.4
21/05:30am 0.8 -1.2 0.1 95 0.3 CALM 0 0 0 0 1021.8 1021.9 3.4
21/05:00am 1.6 -0.3 0.7 94 0.3 CALM 0 0 0 0 1021.7 1021.8 3.4

Other Formats:

Comma delimited format used in spreadsheet applications
http://www.bom.gov.au/fwo/IDV60801/IDV60801.95890.axf

JavaScript Object Notation format (JSON) in row-major order
http://www.bom.gov.au/fwo/IDV60801/IDV60801.95890.json